WARR/SUB METAR and TAF weather

Enter ICAO airport designator
Station Type Date Time Source
WARR METAR 2021/05/15 01:00 UTC NOAA

WARR 150100Z VRB02KT 9999 FEW020 29/25 Q1009 NOSIG


Station Type Date Time Source
WARR Decoded METAR 2021/05/15 01:00 UTC NOAA

Station name not available
May 14, 2021 - 09:00 PM EDT / 2021.05.15 0100 UTC
Wind: Variable at 2 MPH (2 KT):0
Visibility: greater than 7 mile(s):0
Sky conditions: mostly clear
Temperature: 84 F (29 C)
Dew Point: 77 F (25 C)
Relative Humidity: 79%
Pressure (altimeter): 29.80 in. Hg (1009 hPa)
ob: WARR 150100Z VRB02KT 9999 FEW020 29/25 Q1009 NOSIG
cycle: 1

Station Type Date Time Source
WARR TAF 2021/05/14 18:06 UTC NOAA

TAF WARR 141700Z 1418/1518 21005KT 4000 HZ FEW020
BECMG 1500/1502 08010KT 9999 NSW
BECMG 1514/1516 24005KT 4000 HZ

Example: see airport list